AirNav   Duncan Aviation - Near you to keep you flying
 
 550 users online  

KFHK Knox Army Heliport
Fort Rucker/Ozark, Alabama, USA

GOING TO FORT RUCKER/OZARK?


FAA INFORMATION EFFECTIVE 30 DECEMBER 2021

Location

FAA Identifier: FHK
Lat/Long: 31-19-00.6180N 085-39-59.7670W
31-19.010300N 085-39.996117W
31.3168383,-85.6666019
(estimated)
Elevation: 225 ft. / 69 m (estimated)
Variation: 00E (1985)
From city: 5 miles SE of central business district of the associated city
Time zone: UTC -6 (UTC -5 during Daylight Saving Time)
Zip code: 36362

Heliport Operations

Heliport use: Private use. Permission required prior to landing
Activation date: 04/1982
Control tower: yes
ARTCC: JACKSONVILLE CENTER
FSS: ANNISTON FLIGHT SERVICE STATION
NOTAMs facility: OZR (NOTAM-D service available)
Attendance: MON-FRI 1230-1800
Segmented circle: no

Heliport Communications

CTAF: 348.525
KNOX TOWER: 140.5 387.85 [1400-2300Z++MON-FRI, EXC HOL.]
CAIRNS APPROACH: 125.4
CAIRNS DEPARTURE: 125.4
CLEARANCE DELIVERY: 118.075 380.1
WX ASOS at DHN (11 nm E): PHONE 334-983-5999
WX AWOS-3PT at EDN (12 nm W): 118.9 (334-347-3524)
WX AWOS-3PT at 0J6 (18 nm E): 119.575 (334-693-0508)
  • APCH/DEP SVC PRVDD BY JACKSONVILLE ARTCC ON FREQS 134.3/353.5 (DOTHAN RCAG) WHEN CAIRNS APCH CLSD.
  • OPR 1400-2300Z++, EXC HOL. OT UNATTENDED.

Nearby radio navigation aids

VOR radial/distance  VOR name  Freq  Var
HEYr195/(3.5)HANCHEY VOR110.6003W
OZRr050/4.2CAIRNS VOR/DME111.2003W
EDNr087/(12.2)ENTERPRISE VOR116.6003W
RRSr277/12.2WIREGRASS VORTAC111.6002E

 
NDB name  Hdg/Dist  Freq  Var  ID
HANCHEY193/3.622103WHYE .... -.-- .
LOWE127/4.826903WLOR .-.. --- .-.
RUCKR057/9.421203WOZ --- --..
BOLL WEEVIL098/16.235203WBVG -... ...- --.
SOYYA322/35.032902WSMY ... -- -.--
JUDD091/37.126402WJUY .--- ..- -.--
BLOOD148/38.136504WTOI - --- ..

Heliport Services

Runway Information

Helipad H1

Dimensions: 1800 x 50 ft. / 549 x 15 m
Surface: asphalt
Traffic pattern: leftleft

Helipad H2

Dimensions: 1800 x 50 ft. / 549 x 15 m
Surface: asphalt
Traffic pattern: leftleft

Helipad H3

Dimensions: 1800 x 50 ft. / 549 x 15 m
Surface: asphalt
Traffic pattern: leftleft

Helipad H4

Dimensions: 1800 x 50 ft. / 549 x 15 m
Surface: asphalt
Traffic pattern: leftleft

Helipad H5

Dimensions: 1800 x 50 ft. / 549 x 15 m
Surface: asphalt
Traffic pattern: leftleft

Helipad H6

Dimensions: 1800 x 50 ft. / 549 x 15 m
Surface: asphalt
Traffic pattern: leftleft

Heliport Ownership and Management from official FAA records

Ownership: U.S. Army
Owner: US ARMY KNOX ARMY HELIPAD
9325 GUNSTON ROAD
FT BELVOIR, VA 22060

Additional Remarks

CAUTION: EXTV COPTER TRNG IN PROGRESS. W TFC LANES 1 THRU 6 USAR USE LANES 1 & 2 STU PLT TRNG USE LANES 3, 4, 5, & 6.
EXTV NGT TRNG TUE AND THU.

Instrument Procedures

There are no published instrument procedures at KFHK.

Some nearby airports with instrument procedures:

KHEY - Hanchey Army Heliport (Fort Rucker) (2 nm N)
KOZR - Cairns Army Airfield (Fort Rucker) (3 nm SW)
KLOR - Lowe Army Heliport (Fort Rucker) (5 nm NW)
71J - Ozark-Blackwell Field Airport (7 nm N)
KDHN - Dothan Regional Airport (11 nm E)
KEDN - Enterprise Municipal Airport (12 nm W)
0J6 - Headland Municipal Airport (18 nm E)
33J - Geneva Municipal Airport (19 nm SW)
 
Loc | Ops | Rwys | IFR | FBO | Links
Com | Nav | Svcs | Stats | Notes
Area around KFHK (Knox Army Heliport)
 
Road maps at: MapQuest Bing Google
 
Aerial photo
WARNING: Photo may not be current or correct
Aerial photo of KFHK (Knox Army Heliport)
Do you have a better or more recent aerial photo of Knox Army Heliport that you would like to share? If so, please send us your photo.

 
Sectional chart

 
Airport distance calculator
Flying to Knox Army Heliport? Find the distance to fly.

From to KFHK

Sunrise and sunset
Times for 25-Jan-2022
 Local
(UTC-6)
 Zulu
(UTC)
Morning civil twilight06:1412:14
Sunrise06:4012:40
Sunset17:1023:10
Evening civil twilight17:3623:36

Current date and time
Zulu (UTC)  25-Jan-2022 08:00:40
Local (UTC-6)  25-Jan-2022 02:00:40
 
METAR
KHEY 
2nm N 
250658Z AUTO 00000KT 10SM OVC080 07/04 A2995 RMK AO2 SLP145 T00720041
KOZR 
3nm SW 
250656Z AUTO 00000KT 10SM FEW080 07/04 A2995 RMK AO2 SLP144 T00710039 $
KLOR 
5nm NW 
250658Z AUTO 00000KT 10SM OVC085 07/05 A2996 RMK AO2 SLP129 T00670046
KSXS 
10nm W 
250658Z AUTO 00000KT M M BKN085 08/03 A2995 RMK AO2 SLP144 T00800030 PWINO TSNO $
KDHN 
11nm E 
250753Z AUTO 00000KT 10SM OVC090 08/04 A3000 RMK AO2 SLP157 T00830039
KEDN 
12nm W 
250735Z AUTO 00000KT 10SM OVC085 07/04 A2997 RMK AO2 T00700038
TAF
KOZR 
3nm SW 
250200Z 2502/2608 21006KT 9999 SCT080 BKN140 QNH2998INS BECMG 2505/2506 22005KT 9999 VCSH BKN030 BKN080 OVC120 620909 621809 QNH2996INS BECMG 2508/2509 02005KT 4800 -SHRA FEW010 BKN015 OVC030 620809 621705 651006 QNH2996INS TEMPO 2512/2518 3600 RA BKN007 OVC015 BECMG 2522/2523 02005KT 9999 NSW FEW010 BKN030 620903 QNH3005INS TX11/2519Z TN06/2512Z
KDHN 
11nm E 
250539Z 2506/2606 VRB02KT P6SM BKN100 OVC120 FM250900 22002KT 6SM -RA SCT030 OVC070 FM251300 03006KT 4SM SHRA OVC030 FM251800 07007KT 5SM SHRA BKN010 OVC020 FM260300 03004KT P6SM BKN030
NOTAMs
Click for the latest NOTAMs
NOTAMs are issued by the DoD/FAA and will open in a separate window not controlled by AirNav.

 

 
 

Would you like to see your business listed on this page?

 If your business provides an interesting product or service to pilots, flight crews, aircraft, or users of the Knox Army Heliport, you should consider listing it here.  To start the listing process, click on the button below
 
Add a business
 

Other Pages about Knox Army Heliport

Update a link
 
Copyright © AirNav, LLC. All rights reserved. Privacy Policy  Contact